Edwards Creek Valley, Nevada Weather observations

Data are for observation ending at time listed.
 Day   Time    Ave.   Ave.  Ave.  Vector   Max.   Stn.    Total    Solar   Ave.  
  of    of     Air    Rel.  Wind   Wind    Wind   Baro.  Precip.   Rad.    Soil  
Year   Day     Temp.  Hum.  Speed  Dir.    Gust   Pres.                    Temp. 
2017   (PST)    F      %     mph   deg.    mph     mb.     in.     W/m2     F   
------------------------------------------------------------------------------
  35   20:30   36.7    65    8.2   220     10.5    844     0.00       0     31.8
  35   20:40   37.2    65    7.9   216     10.9    844     0.00       0     31.9
  35   20:50   37.2    65    8.0   218     10.7    844     0.00       0     31.9
  35   21:00   36.8    65    8.0   208     11.0    844     0.00       0     31.9
  35   21:10   36.5    65    7.3   205     10.2    845     0.00       0     31.9
  35   21:20   36.6    65    7.5   206     14.9    845     0.00       0     31.9
  35   21:30   36.6    65    7.5   206     11.3    844     0.00       0     31.9
  35   21:40   36.2    65    6.0   201      9.1    844     0.00       0     31.9
  35   21:50   36.0    65    5.3   208      8.0    845     0.00       0     31.9
  35   22:00   35.3    65    3.2   205      5.6    844     0.00       0     31.9
  35   22:10   34.7    65    3.0   201      5.8    844     0.00       0     31.9
  35   22:20   34.5    65    2.4   104      4.4    844     0.00       0     31.9
  35   22:30   33.8    65    2.3    47      4.4    844     0.00       0     31.9
  35   22:40   34.3    65    3.1   357      7.7    844     0.00       0     31.9
  35   22:50   34.4    65    4.4    57      6.9    844     0.00       0     31.9
  35   23:00   33.1    65    5.9    69      8.2    844     0.00       0     31.8
  35   23:10   34.4    65    5.4    93      9.1    844     0.00       0     31.8
  35   23:20   35.3    65    5.2   116      8.0    844     0.00       0     31.8
  35   23:30   35.3    65    3.6   131      6.0    844     0.00       0     31.8
  35   23:40   34.9    65    1.5   181      4.0    844     0.00       0     31.8
  35   23:50   34.2    65    1.3    54      3.4    844     0.00       0     31.8
  36    0:00   33.2    65    3.3    76      5.2    845     0.00       0     31.9
  36    0:10   33.4    65    3.4    86      5.2    845     0.00       0     31.9
  36    0:20   31.7    65    2.9   116      3.9    845     0.00       0     31.8
  36    0:30   33.0    65    2.0   147      3.2    845     0.00       0     31.8
  36    0:40   31.7    65    2.5   327      4.1    844     0.00       0     31.8
  36    0:50   29.8    65    2.1   299      3.2    844     0.00       0     31.8
  36    1:00   28.9    65    2.1    29      4.6    844     0.00       0     31.8
  36    1:10   27.7    65    2.4    85      3.9    844     0.00       0     31.8
  36    1:20   28.2    65    1.7    29      3.1    844     0.00       0     31.8
  36    1:30   27.4    65    1.9   101      3.3    844     0.00       0     31.8
  36    1:40   27.4    65    3.0   116      4.2    843     0.00       0     31.8
  36    1:50   27.1    65    3.3    92      4.1    844     0.00       0     31.8
  36    2:00   27.1    65    4.1   127      4.7    844     0.00       0     31.8
  36    2:10   27.3    65    4.0   130      4.7    844     0.00       0     31.8
  36    2:20   27.9    65    4.7   150      6.3    844     0.00       0     31.8
  36    2:30   28.5    65    2.1   144      4.2    843     0.00       0     31.7
  36    2:40   28.3    65    2.7    39      5.3    843     0.00       0     31.8
  36    2:50   26.9    65    4.0     9      6.2    843     0.00       0     31.8
  36    3:00   26.8    65    1.1   166      2.5    843     0.00       0     31.8
  36    3:10   27.3    65    1.3    56      3.4    843     0.00       0     31.8
  36    3:20   25.6    65    2.5    78      3.4    843     0.00       0     31.8
  36    3:30   25.4    65    1.3   136      2.9    843     0.00       0     31.8
  36    3:40   25.8    65    0.6   201      1.8    844     0.00       0     31.8
  36    3:50   25.4    65    1.5   253      2.8    843     0.00       0     31.8
  36    4:00   25.1    65    1.5   156      3.7    843     0.00       0     31.8
  36    4:10   25.1    65    1.5   169      3.6    843     0.00       0     31.8
  36    4:20   24.8    65    1.5   171      3.1    843     0.00       0     31.8
  36    4:30   24.7    65    1.4   194      2.4    843     0.00       0     31.8
  36    4:40   24.7    65    2.0   201      3.3    843     0.00       0     31.8
  36    4:50   24.8    65    3.0   211      3.7    843     0.00       0     31.7
  36    5:00   24.6    65    2.6   216      3.7    844     0.00       0     31.7
  36    5:10   24.5    65    1.7   193      3.6    843     0.00       0     31.7
  36    5:20   24.8    65    1.5   194      3.7    842     0.00       0     31.7
  36    5:30   25.3    65    2.8   199      4.5    842     0.00       0     31.7
  36    5:40   25.6    65    2.6   199      4.2    842     0.00       0     31.7
  36    5:50   26.2    65    1.3   197      3.6    843     0.00       0     31.7
  36    6:00   26.9    65    1.5   178      3.4    843     0.00       0     31.7
  36    6:10   27.0    65    0.7   179      2.3    842     0.00       0     31.7
  36    6:20   26.8    65    1.8   221      3.0    842     0.00       0     31.7
  36    6:30   26.7    65    3.1   226      4.3    843     0.00       0     31.7
  36    6:40   27.4    65    3.4   232      4.9    843     0.00       0     31.7
  36    6:50   27.6    65    2.0   210      3.4    843     0.00       1     31.7
  36    7:00   27.7    65    1.0   181      2.7    843     0.00       2     31.6
  36    7:10   28.1    65    1.8   118      3.7    843     0.00       5     31.6
  36    7:20   28.7    65    0.7    58      1.7    843     0.00      12     31.6
  36    7:30   28.6    65    2.4   352      3.9    843     0.00      19     31.6
  36    7:40   28.6    65    2.5    24      4.4    842     0.00      24     31.6
  36    7:50   28.5    65    2.6    45      4.7    842     0.00      33     31.6
  36    8:00   28.6    65    1.3    94      2.1    842     0.00      40     31.6
  36    8:10   28.9    65    2.6    88      3.7    842     0.00      54     31.7
  36    8:20   29.3    65    2.2   109      3.4    843     0.00      64     31.7
  36    8:30   29.8    65    1.0    62      2.6    843     0.00      77     31.7
  36    8:40   29.8    65    2.4   310      3.7    843     0.00      99     31.7
  36    8:50   30.1    65    1.2   284      1.8    843     0.00     181     31.7
  36    9:00   31.3    65    1.9   239      3.1    843     0.00     253     31.7
  36    9:10   32.0    65    2.3   238      3.4    843     0.00     249     31.7
  36    9:20   33.2    65    1.0   227      2.6    842     0.00     222     31.7
  36    9:30   33.9    65    2.2   224      3.5    842     0.00     291     31.7
  36    9:40   34.9    65    2.5   224      4.6    842     0.00     365     31.8
  36    9:50   35.8    65    1.8   226      3.5    842     0.00     346     31.8
  36   10:00   36.8    65    1.5   218      2.9    842     0.00     277     31.8
  36   10:10   38.2    65    0.9   199      2.1    842     0.00     317     31.8
  36   10:20   39.2    65    2.0   157      2.9    842     0.00     358     31.9
  36   10:30   39.1    65    1.4   136      2.8    842     0.00     306     31.9
  36   10:40   39.3    65    1.2    94      3.4    842     0.00     303     31.9
  36   10:50   39.2    65    2.0    46      3.7    842     0.00     369     31.9
  36   11:00   40.0    65    1.4    33      2.9    841     0.00     570     31.9
  36   11:10   40.9    65    2.3    23      3.9    841     0.00     547     31.9
  36   11:20   40.1    65    2.6     7      4.0    842     0.00     491     32.0
  36   11:30   40.3    65    2.5     8      3.7    842     0.00     436     32.0
  36   11:40   40.4    65    2.5   348      3.5    841     0.00     304     32.0
  36   11:50   40.9    65    2.1   332      3.1    841     0.00     350     32.0
  36   12:00   41.2    65    2.8     4      4.2    841     0.00     352     32.0
  36   12:10   41.1    65    6.0    12      8.1    841     0.00     442     32.0
  36   12:20   41.3    65    5.0    17      7.5    841     0.00     376     32.0
  36   12:30   41.6    65    4.0    28      6.9    840     0.00     315     32.0
  36   12:40   41.7    65    3.7    37      7.1    840     0.00     280     32.0
  36   12:50   41.4    65    6.0    40      8.6    840     0.00     271     32.0
  36   13:00   40.5    65    5.1    53      8.6    840     0.00     246     32.0
  36   13:10   40.7    65    3.8    34      5.9    840     0.00     255     32.0
  36   13:20   40.5    65    4.0    47      5.8    839     0.00     274     32.0
  36   13:30   41.0    65    2.9    61      5.3    840     0.00     210     32.0
  36   13:40   41.0    65    3.5     8      5.1    839     0.00     222     32.0
  36   13:50   40.9    65    4.4    32      6.6    839     0.00     223     32.0
  36   14:00   42.0    65    2.6    47      4.7    839     0.00     216     32.0
  36   14:10   42.9    65    1.4   351      3.1    838     0.00     195     32.0
  36   14:20   43.3    65    3.3   328      6.6    838     0.00     208     32.0
  36   14:30   44.9    65    4.1   267      9.1    838     0.00     178     32.0
  36   14:40   43.4    65    5.7   272      8.6    838     0.00     162     32.0
  36   14:50   42.3    65    4.4   242      6.9    838     0.00     145     32.0
  36   15:00   42.8    65    4.6   236      7.8    838     0.00     127     32.0
  36   15:10   42.4    65    3.3   237      5.1    838     0.00     127     32.0
  36   15:20   42.4    65    3.6   220      6.0    838     0.00     123     32.0
  36   15:30   43.5    65    3.9   220      9.1    838     0.00     111     32.0
  36   15:40   44.2    65    5.0   225      8.4    837     0.00      97     32.0
  36   15:50   43.6    65    2.1   207      5.3    837     0.00      95     32.0
  36   16:00   42.6    66    2.8   160      5.8    837     0.00     107     32.0
  36   16:10   42.9    65    3.6   225      7.4    837     0.00      78     32.0
  36   16:20   42.3    66    1.3   213      3.9    837     0.00      48     32.0
  36   16:30   41.4    65    3.1   270      6.7    837     0.00      51     32.0
  36   16:40   41.7    65    3.9   247      6.9    837     0.00      54     32.0
  36   16:50   41.4    66    6.8   256     10.2    837     0.00      45     32.0
  36   17:00   41.3    66    6.5   256      9.4    836     0.00      36     32.0
  36   17:10   41.7    66    5.5   264      9.1    836     0.00      16     32.0
  36   17:20   41.3    66    7.2   260     12.1    836     0.00       7     32.0
  36   17:30   41.5    66    8.7   258     14.2    836     0.00       1     32.0
  36   17:40   40.9    66    4.7   263      9.0    836     0.00       0     32.0
  36   17:50   39.3    66    4.2    25      6.2    836     0.00       0     32.0
  36   18:00   39.8    66    2.2    42      5.8    836     0.00       0     32.0
  36   18:10   41.1    66    1.9   242      7.7    836     0.00       0     32.0
  36   18:20   41.4    66    2.3   146      6.4    835     0.00       0     32.0
  36   18:30   41.2    66    2.0   163      5.3    835     0.00       0     32.0
  36   18:40   41.3    66    2.9   311      7.1    835     0.00       0     32.0
  36   18:50   40.5    66    6.1   269      9.0    835     0.00       0     32.0
  36   19:00   39.9    66    5.8   252      9.0    835     0.00       0     32.0
  36   19:10   39.1    66    3.0   120      6.1    835     0.00       0     32.0
  36   19:20   39.0    66    2.4   146      5.0    835     0.00       0     32.0
  36   19:30   38.0    66    1.5   150      4.3    835     0.00       0     31.9
  36   19:40   39.3    66    4.8   245      8.1    834     0.00       0     31.9
  36   19:50   40.1    66    8.1   244     13.2    834     0.00       0     32.0
  36   20:00   39.0    66    2.8   145      8.0    834     0.00       0     32.0
  36   20:10   39.1    66    1.6   111      4.8    834     0.00       0     31.9
  36   20:20   41.0    66    3.5   240      6.3    834     0.00       0     32.0

Return to Carson Sink graphs page.


Western Regional Climate Center,wrcc@dri.edu